Terminal Aerodrome Forecast
Issued by NWS

Home | Current Version | Previous Version | Text Only | Print | Product List | Glossary On
Versions: 1 2 3 4 5 6 7 8 9 10 11 12 13 14 15 16 17 18 19 20 21 22 23 24 25 26 27
132
FTUS41 KOKX 110837 AAA
TAFSWF
TAF AMD
KSWF 110837Z 1109/1212 26008KT P6SM SCT030 OVC050
      TEMPO 1109/1111 26007KT 6SM -SHSN OVC030
     FM111400 28009KT P6SM SCT030 SCT250
     FM112100 28006KT P6SM SCT030 BKN250
     FM112200 VRB05KT P6SM SCT030 BKN250
     FM120500 VRB02KT P6SM -SN OVC100
      AMD NOT SKED=

USA.gov is the U.S. government's official web portal to all federal, state and local government web resources and services.